Time;durP1;ratioP1;P1;durP2;ratioP2;P2;SDS_P1;SDS_P2;PMS_P1;PMS_P2;Temp;Humidity;BMP_temperature;BMP_pressure;BME280_temperature;BME280_humidity;BME280_pressure;Samples;Min_cycle;Max_cycle;Signal;HPM_P1;HPM_P2
2021/01/17 00:01:54;;;;;;;27.65;14.13;;;;;;;-0.82;87.10;101565.66;6199658;28;20142;-81
2021/01/17 00:04:55;;;;;;;27.25;13.65;;;;;;;-0.83;87.03;101567.41;6199500;28;20053;-81
2021/01/17 00:07:58;;;;;;;25.48;13.60;;;;;;;-0.83;87.25;101554.50;6199729;28;20490;-81
2021/01/17 00:10:59;;;;;;;25.95;13.38;;;;;;;-0.85;87.50;101551.06;6199244;28;20039;-81
2021/01/17 00:14:00;;;;;;;26.88;14.70;;;;;;;-0.87;86.49;101555.31;6199849;28;20049;-80
2021/01/17 00:17:01;;;;;;;24.38;12.63;;;;;;;-0.86;86.73;101551.91;6199463;28;20478;-81
2021/01/17 00:20:02;;;;;;;27.98;13.45;;;;;;;-0.85;86.26;101547.63;6198950;28;20534;-80
2021/01/17 00:23:06;;;;;;;26.48;13.68;;;;;;;-0.86;86.10;101539.00;6199344;28;20050;-81
2021/01/17 00:26:06;;;;;;;25.63;13.70;;;;;;;-0.85;86.55;101527.84;6198961;28;20050;-80
2021/01/17 00:29:07;;;;;;;23.23;13.57;;;;;;;-0.85;85.92;101526.97;6198911;28;20073;-80
2021/01/17 00:32:09;;;;;;;31.10;14.00;;;;;;;-0.83;85.70;101527.81;6198966;28;20054;-81
2021/01/17 00:35:10;;;;;;;27.02;13.68;;;;;;;-0.83;85.73;101527.81;6196787;28;20042;-80
2021/01/17 00:38:12;;;;;;;22.15;12.63;;;;;;;-0.82;85.75;101530.44;6198885;28;20046;-81
2021/01/17 00:41:13;;;;;;;26.25;13.45;;;;;;;-0.83;85.02;101523.53;6198568;28;20108;-80
2021/01/17 00:44:14;;;;;;;27.98;13.32;;;;;;;-0.79;84.97;101521.84;6199213;28;20046;-81
2021/01/17 00:47:15;;;;;;;25.50;13.18;;;;;;;-0.81;85.25;101510.66;6198929;28;20050;-81
2021/01/17 00:50:17;;;;;;;29.10;13.13;;;;;;;-0.82;85.63;101519.22;6198424;28;20053;-81
2021/01/17 00:53:19;;;;;;;25.40;13.68;;;;;;;-0.78;84.89;101508.06;6198490;28;20047;-81
2021/01/17 00:56:23;;;;;;;28.15;13.82;;;;;;;-0.81;84.16;101508.06;6198494;28;20108;-80
2021/01/17 00:59:24;;;;;;;28.70;14.18;;;;;;;-0.81;84.18;101506.34;6198487;28;20115;-81
2021/01/17 01:02:25;;;;;;;22.20;12.48;;;;;;;-0.80;84.02;101502.91;6198556;28;20046;-80
2021/01/17 01:05:26;;;;;;;25.90;12.80;;;;;;;-0.81;83.45;101502.91;6198622;28;20132;-80
2021/01/17 01:08:27;;;;;;;24.63;12.40;;;;;;;-0.79;83.69;101501.19;6198241;28;20043;-81
2021/01/17 01:11:28;;;;;;;22.63;11.98;;;;;;;-0.80;83.35;101492.59;6195361;28;20116;-80
2021/01/17 01:14:29;;;;;;;21.45;11.70;;;;;;;-0.83;82.97;101489.13;6197408;28;20047;-76
2021/01/17 01:17:30;;;;;;;22.52;11.23;;;;;;;-0.84;82.43;101484.81;6198026;28;20169;-76
2021/01/17 01:20:31;;;;;;;20.20;11.23;;;;;;;-0.81;82.77;101490.88;6197541;28;20050;-76
2021/01/17 01:23:32;;;;;;;19.70;11.25;;;;;;;-0.85;82.19;101486.56;6197891;28;20046;-76
2021/01/17 01:26:37;;;;;;;23.38;11.85;;;;;;;-0.87;82.18;101482.22;6197695;28;20053;-76
2021/01/17 01:29:37;;;;;;;19.00;10.20;;;;;;;-0.88;82.05;101488.25;6197366;28;20073;-76
2021/01/17 01:32:38;;;;;;;18.67;10.70;;;;;;;-0.91;82.30;101489.09;6197670;28;20411;-76
2021/01/17 01:35:39;;;;;;;18.42;10.65;;;;;;;-0.90;82.45;101482.22;6198064;28;20050;-75
2021/01/17 01:38:41;;;;;;;21.30;11.07;;;;;;;-0.91;82.94;101480.47;6229633;22;20465;-74
2021/01/17 01:41:42;;;;;;;21.67;11.20;;;;;;;-0.93;82.68;101470.16;6246937;28;20564;-75
2021/01/17 01:44:43;;;;;;;18.70;10.68;;;;;;;-0.91;82.29;101481.38;6246737;28;20045;-75
2021/01/17 01:47:44;;;;;;;19.10;10.60;;;;;;;-0.86;82.66;101473.66;6237460;28;20418;-75
2021/01/17 01:50:46;;;;;;;22.30;11.00;;;;;;;-0.87;81.94;101477.91;6222842;28;20183;-75
2021/01/17 01:53:50;;;;;;;20.08;11.20;;;;;;;-0.87;82.13;101475.34;6246871;28;20152;-74
2021/01/17 01:56:52;;;;;;;20.23;10.40;;;;;;;-0.86;82.00;101473.66;6246262;28;20045;-75
2021/01/17 01:59:53;;;;;;;21.20;11.45;;;;;;;-0.87;82.37;101472.75;6246448;28;20046;-76
2021/01/17 02:02:54;;;;;;;19.10;10.50;;;;;;;-0.88;82.52;101473.63;6246728;28;20045;-75
2021/01/17 02:05:55;;;;;;;18.00;10.13;;;;;;;-0.87;82.86;101465.03;6246680;28;20077;-75
2021/01/17 02:09:20;;;;;;;20.45;11.35;;;;;;;-0.93;82.32;101466.72;6246291;28;20060;-75
2021/01/17 02:12:27;;;;;;;20.83;9.45;;;;;;;-0.88;82.56;101465.88;6246548;28;20057;-75
2021/01/17 02:15:32;;;;;;;21.60;11.18;;;;;;;-0.91;82.07;101463.31;6246667;28;20049;-75
2021/01/17 02:18:35;;;;;;;18.90;10.52;;;;;;;-0.94;81.96;101459.84;6246070;28;20056;-75
2021/01/17 02:21:39;;;;;;;19.85;10.07;;;;;;;-0.93;82.50;101453.81;6246313;28;20103;-75
2021/01/17 02:24:50;;;;;;;20.90;11.40;;;;;;;-0.92;82.66;101458.97;6246488;28;20046;-75
2021/01/17 02:27:52;;;;;;;21.10;10.77;;;;;;;-0.90;82.31;101454.72;6245910;28;20050;-75
2021/01/17 02:30:56;;;;;;;21.08;11.15;;;;;;;-0.89;82.40;101451.25;6245670;28;20045;-74
2021/01/17 02:33:58;;;;;;;21.25;11.68;;;;;;;-0.89;81.65;101448.69;6246328;28;20458;-75
2021/01/17 02:37:04;;;;;;;17.88;9.65;;;;;;;-0.92;81.99;101448.66;6245642;28;20080;-75
2021/01/17 02:40:13;;;;;;;19.48;10.50;;;;;;;-0.93;81.11;101444.34;6245672;28;20045;-75
2021/01/17 02:43:14;;;;;;;20.27;10.43;;;;;;;-0.93;81.81;101446.09;6245776;28;20048;-75
2021/01/17 02:46:15;;;;;;;18.98;10.20;;;;;;;-0.89;82.24;101437.50;6245887;28;20057;-74
2021/01/17 02:49:16;;;;;;;19.88;10.43;;;;;;;-0.94;80.77;101440.06;6245678;28;20077;-75
2021/01/17 02:52:23;;;;;;;20.40;11.60;;;;;;;-0.97;80.98;101434.88;6246354;28;20074;-75
2021/01/17 02:55:26;;;;;;;19.65;9.93;;;;;;;-0.94;81.87;101436.63;6246033;28;20041;-75
2021/01/17 02:58:27;;;;;;;17.13;9.98;;;;;;;-0.92;82.20;101443.50;6245833;28;20057;-75
2021/01/17 03:01:31;;;;;;;19.25;10.07;;;;;;;-0.94;82.01;101440.06;6245536;28;20060;-75
2021/01/17 03:04:41;;;;;;;19.30;10.13;;;;;;;-0.96;81.84;101438.31;6246215;28;20050;-74
2021/01/17 03:07:46;;;;;;;19.55;10.48;;;;;;;-0.95;82.06;101438.34;6245478;28;20399;-75
2021/01/17 03:10:48;;;;;;;19.13;8.98;;;;;;;-0.91;82.50;101434.03;6245483;28;20434;-76
2021/01/17 03:13:50;;;;;;;17.98;9.95;;;;;;;-0.94;82.46;101440.06;6245353;28;20442;-75
2021/01/17 03:16:51;;;;;;;18.23;9.73;;;;;;;-0.97;81.76;101439.19;6245751;28;20052;-75
2021/01/17 03:19:52;;;;;;;17.17;9.23;;;;;;;-0.94;82.02;101439.22;6245421;28;20053;-75
2021/01/17 03:22:52;;;;;;;15.88;8.93;;;;;;;-0.97;81.47;101444.34;6245598;28;20056;-75
2021/01/17 03:25:54;;;;;;;20.10;10.05;;;;;;;-0.98;81.84;101443.47;6245595;28;20070;-75
2021/01/17 03:28:55;;;;;;;17.80;9.60;;;;;;;-0.98;81.37;101440.91;6245190;28;20488;-75
2021/01/17 03:31:56;;;;;;;16.33;9.20;;;;;;;-0.96;81.56;101438.31;6245892;28;20045;-75
2021/01/17 03:34:56;;;;;;;16.50;8.55;;;;;;;-0.98;81.98;101438.31;6245367;28;20057;-75
2021/01/17 03:37:57;;;;;;;17.23;9.65;;;;;;;-0.99;81.17;101435.75;6246450;28;20053;-75
2021/01/17 03:40:59;;;;;;;17.48;9.88;;;;;;;-0.99;81.49;101433.16;6249403;28;20050;-74
2021/01/17 03:44:00;;;;;;;16.60;8.90;;;;;;;-0.99;80.81;101430.59;6249415;28;20050;-75
2021/01/17 03:47:01;;;;;;;16.02;8.60;;;;;;;-1.00;80.98;101434.00;6249541;28;20049;-75
2021/01/17 03:50:02;;;;;;;17.52;9.20;;;;;;;-0.99;81.06;101435.75;6249198;28;20049;-76
2021/01/17 03:53:03;;;;;;;17.58;9.15;;;;;;;-1.06;80.77;101440.00;6249843;28;20445;-75
2021/01/17 03:56:05;;;;;;;16.05;9.30;;;;;;;-1.05;80.30;101437.41;6249208;28;20049;-74
2021/01/17 03:59:06;;;;;;;16.88;8.45;;;;;;;-1.05;80.19;101445.16;6249328;28;20049;-75
2021/01/17 04:02:07;;;;;;;18.40;8.43;;;;;;;-1.06;80.60;101442.56;6249365;28;20049;-77
2021/01/17 04:05:09;;;;;;;18.33;9.23;;;;;;;-1.04;80.32;101443.47;6249549;28;20490;-77
2021/01/17 04:08:10;;;;;;;15.88;8.43;;;;;;;-1.05;80.35;101440.00;6248792;28;20054;-77
2021/01/17 04:11:11;;;;;;;17.88;8.77;;;;;;;-1.01;80.22;101443.44;6248663;28;20056;-75
2021/01/17 04:14:12;;;;;;;15.63;8.60;;;;;;;-1.06;79.71;101442.56;6249280;28;20041;-75
2021/01/17 04:17:13;;;;;;;17.98;9.32;;;;;;;-1.07;80.24;101440.84;6248788;28;20465;-75
2021/01/17 04:20:15;;;;;;;15.95;9.23;;;;;;;-1.08;80.29;101442.56;6248467;28;20092;-74
2021/01/17 04:23:16;;;;;;;18.70;8.63;;;;;;;-1.11;79.74;101441.69;6248962;28;20053;-75
2021/01/17 04:26:18;;;;;;;15.60;8.50;;;;;;;-1.09;79.81;101445.13;6248990;28;20045;-78
2021/01/17 04:29:19;;;;;;;17.08;9.60;;;;;;;-1.10;80.07;101445.97;6248288;28;20049;-74
2021/01/17 04:32:20;;;;;;;17.88;8.85;;;;;;;-1.10;80.82;101430.50;6248676;28;20076;-75
2021/01/17 04:35:20;;;;;;;18.67;9.48;;;;;;;-1.08;80.03;101442.56;6248611;28;20045;-75
2021/01/17 04:38:21;;;;;;;17.15;8.82;;;;;;;-1.10;79.89;101438.25;6248224;28;20126;-75
2021/01/17 04:41:27;;;;;;;16.02;8.55;;;;;;;-1.16;79.48;101433.06;6248025;28;20045;-74
2021/01/17 04:44:33;;;;;;;17.90;9.13;;;;;;;-1.18;80.71;101443.38;6248865;28;20418;-77
2021/01/17 04:47:36;;;;;;;17.02;9.13;;;;;;;-1.19;80.47;101445.94;6248161;28;20053;-75
2021/01/17 04:50:39;;;;;;;16.52;8.57;;;;;;;-1.17;79.72;101439.94;6247615;28;20072;-77
2021/01/17 04:53:40;;;;;;;17.52;9.27;;;;;;;-1.19;80.15;101441.63;6248248;28;20045;-77
2021/01/17 04:56:49;;;;;;;20.05;9.30;;;;;;;-1.19;80.48;101448.50;6245186;28;20430;-77
2021/01/17 05:00:01;;;;;;;;;;;;;;;-1.24;80.06;101445.03;6244875;28;20072;-74
2021/01/17 05:03:15;;;;;;;20.65;9.35;;;;;;;-1.22;79.62;101443.34;6247302;28;19928;-77
2021/01/17 05:06:24;;;;;;;18.08;9.50;;;;;;;-1.23;80.24;101444.19;6247158;28;20050;-77
2021/01/17 05:09:30;;;;;;;17.50;9.63;;;;;;;-1.20;81.07;101444.22;6247377;28;20057;-77
2021/01/17 05:12:38;;;;;;;17.77;8.93;;;;;;;-1.16;81.21;101441.66;6247473;28;20688;-77
2021/01/17 05:15:42;;;;;;;19.08;9.73;;;;;;;-1.16;81.12;101440.81;6247803;28;20052;-75
2021/01/17 05:18:47;;;;;;;18.00;9.13;;;;;;;-1.14;81.05;101441.66;6246852;28;20042;-77
2021/01/17 05:21:50;;;;;;;21.08;10.43;;;;;;;-1.20;80.54;101444.22;6247528;28;20081;-75
2021/01/17 05:24:52;;;;;;;16.00;8.90;;;;;;;-1.18;81.18;101443.38;6247466;28;20425;-75
2021/01/17 05:27:55;;;;;;;19.10;9.25;;;;;;;-1.24;79.74;101442.47;6246859;28;20045;-77
2021/01/17 05:30:56;;;;;;;18.33;9.43;;;;;;;-1.24;80.87;101439.88;6246727;28;20099;-76
2021/01/17 05:33:57;;;;;;;19.60;10.23;;;;;;;-1.21;81.46;101445.06;6247150;28;20102;-76
2021/01/17 05:37:03;;;;;;;17.27;8.93;;;;;;;-1.22;81.32;101441.63;6247104;28;20057;-74
2021/01/17 05:40:06;;;;;;;18.63;9.88;;;;;;;-1.23;80.15;101439.88;6246532;28;20115;-75
2021/01/17 05:43:09;;;;;;;18.00;9.60;;;;;;;-1.24;80.94;101435.59;6247051;28;20045;-77
2021/01/17 05:46:11;;;;;;;18.95;9.52;;;;;;;-1.25;81.22;101457.06;6246671;28;20068;-75
2021/01/17 05:49:13;;;;;;;16.20;8.75;;;;;;;-1.21;81.64;101450.22;6246795;28;20521;-77
2021/01/17 05:52:15;;;;;;;17.30;9.25;;;;;;;-1.18;81.79;101452.81;6246888;28;20056;-77
2021/01/17 05:55:17;;;;;;;15.30;8.52;;;;;;;-1.16;81.80;101458.84;6246527;28;20042;-77
2021/01/17 05:58:27;;;;;;;19.67;9.18;;;;;;;-1.21;80.95;101457.97;6246457;28;20049;-77
2021/01/17 06:01:31;;;;;;;16.70;8.38;;;;;;;-1.20;81.15;101460.53;6245739;28;20060;-77
2021/01/17 06:04:33;;;;;;;15.88;8.70;;;;;;;-1.21;81.02;101460.53;6246733;28;20502;-77
2021/01/17 06:07:34;;;;;;;19.80;9.90;;;;;;;-1.20;81.09;101465.69;6246451;28;20049;-77
2021/01/17 06:10:35;;;;;;;17.50;8.70;;;;;;;-1.19;81.07;101463.97;6246250;28;20060;-77
2021/01/17 06:13:38;;;;;;;17.13;9.02;;;;;;;-1.19;81.42;101463.97;6246432;28;20049;-77
2021/01/17 06:16:40;;;;;;;17.70;9.45;;;;;;;-1.17;81.62;101467.44;6246419;28;20053;-77
2021/01/17 06:19:43;;;;;;;21.67;9.25;;;;;;;-1.20;81.27;101465.69;6245949;28;20549;-77
2021/01/17 06:22:46;;;;;;;18.48;9.18;;;;;;;-1.20;80.35;101459.69;6246546;28;20045;-74
2021/01/17 06:26:01;;;;;;;21.10;9.13;;;;;;;-1.18;80.33;101465.69;6246210;28;20059;-75
2021/01/17 06:29:05;;;;;;;20.10;9.93;;;;;;;-1.19;80.31;101461.41;6245975;28;20053;-77
2021/01/17 06:32:18;;;;;;;18.02;9.02;;;;;;;-1.16;80.56;101471.75;6246526;28;20045;-74
2021/01/17 06:35:30;;;;;;;20.48;9.70;;;;;;;-1.19;80.75;101472.56;6246212;28;20041;-75
2021/01/17 06:38:32;;;;;;;18.40;8.80;;;;;;;-1.17;80.56;101464.88;6245718;28;20052;-77
2021/01/17 06:41:36;;;;;;;18.63;9.38;;;;;;;-1.22;80.86;101461.41;6245801;28;20521;-77
2021/01/17 06:44:39;;;;;;;17.50;8.98;;;;;;;-1.24;80.57;101460.50;6245953;28;20053;-74
2021/01/17 06:47:53;;;;;;;19.63;9.60;;;;;;;-1.24;80.49;101465.66;6246151;28;20056;-75
2021/01/17 06:50:54;;;;;;;19.10;9.68;;;;;;;-1.24;80.99;101466.53;6245526;28;20572;-76
2021/01/17 06:53:56;;;;;;;20.25;9.50;;;;;;;-1.28;80.71;101468.22;6246079;28;20391;-77
2021/01/17 06:56:59;;;;;;;20.27;9.88;;;;;;;-1.25;81.02;101469.97;6245370;28;20049;-76
2021/01/17 07:00:14;;;;;;;18.80;9.68;;;;;;;-1.23;81.92;101470.81;6245697;28;20053;-77
2021/01/17 07:03:16;;;;;;;18.10;9.07;;;;;;;-1.23;81.77;101483.72;6245964;28;20053;-77
2021/01/17 07:06:29;;;;;;;17.45;8.73;;;;;;;-1.23;81.36;101483.72;6245925;28;20049;-76
2021/01/17 07:09:41;;;;;;;17.20;9.15;;;;;;;-1.20;81.43;101483.75;6245460;28;20045;-77
2021/01/17 07:12:55;;;;;;;15.55;8.25;;;;;;;-1.16;81.66;101484.63;6248490;28;20127;-77
2021/01/17 07:16:01;;;;;;;19.38;9.50;;;;;;;-1.13;81.18;101490.69;6250339;28;20076;-78
2021/01/17 07:19:07;;;;;;;18.40;9.35;;;;;;;-1.11;81.56;101493.25;6250167;28;20046;-76
2021/01/17 07:22:07;;;;;;;18.80;8.65;;;;;;;-1.13;81.45;101485.53;6250448;28;20132;-76
2021/01/17 07:25:11;;;;;;;17.98;8.90;;;;;;;-1.11;82.09;101493.25;6250145;28;20080;-77
2021/01/17 07:28:13;;;;;;;17.70;8.77;;;;;;;-1.10;81.71;101494.97;6249942;28;20091;-77
2021/01/17 07:31:18;;;;;;;18.73;9.27;;;;;;;-1.10;81.82;101508.75;6249837;28;20056;-77
2021/01/17 07:34:21;;;;;;;19.13;9.75;;;;;;;-1.10;82.00;101506.16;6250147;28;20042;-77
2021/01/17 07:37:27;;;;;;;18.42;9.52;;;;;;;-1.08;82.30;101501.03;6249851;28;20530;-77
2021/01/17 07:43:48;;;;;;;19.52;10.25;;;;;;;-1.19;81.45;101506.09;6248950;28;20468;-78
2021/01/17 07:46:52;;;;;;;16.88;9.05;;;;;;;-1.13;82.06;101513.03;6249394;28;20054;-78
2021/01/17 07:49:56;;;;;;;20.25;10.02;;;;;;;-1.13;82.17;101521.63;6249419;28;20057;-78
2021/01/17 07:52:57;;;;;;;20.50;11.18;;;;;;;-1.12;82.17;101525.94;6249578;28;20049;-78
2021/01/17 07:56:03;;;;;;;20.02;10.40;;;;;;;-1.09;81.53;101530.22;6249341;28;20050;-78
2021/01/17 07:59:06;;;;;;;22.55;10.63;;;;;;;-1.11;82.15;101529.38;6249154;28;20050;-78
2021/01/17 08:02:09;;;;;;;21.75;10.40;;;;;;;-1.16;81.36;101529.34;6249268;28;20041;-78
2021/01/17 08:05:10;;;;;;;17.13;9.23;;;;;;;-1.09;81.54;101532.81;6249362;28;20073;-78
2021/01/17 08:08:44;;;;;;;22.42;10.52;;;;;;;-1.16;81.28;101538.78;6249127;28;20053;-78
2021/01/17 08:11:46;;;;;;;21.75;10.35;;;;;;;-1.14;80.91;101544.81;6249242;28;20056;-78
2021/01/17 08:14:47;;;;;;;21.45;10.05;;;;;;;-1.10;81.47;101547.44;6249367;28;20497;-78
2021/01/17 08:17:50;;;;;;;23.20;11.48;;;;;;;-1.07;82.33;101556.91;6249001;28;20049;-78
2021/01/17 08:20:51;;;;;;;22.15;10.82;;;;;;;-1.04;82.58;101549.22;6248594;28;20172;-78
2021/01/17 08:24:19;;;;;;;22.05;11.32;;;;;;;-1.04;81.71;101555.22;6248252;28;20048;-78
2021/01/17 08:27:29;;;;;;;22.48;11.23;;;;;;;-1.05;81.85;101563.78;6248925;28;20056;-78
2021/01/17 08:30:39;;;;;;;19.30;10.70;;;;;;;-1.10;81.77;101560.31;6248393;28;20094;-78
2021/01/17 08:33:40;;;;;;;26.00;12.45;;;;;;;-1.08;82.17;101561.22;6249185;28;20046;-78
2021/01/17 08:36:43;;;;;;;23.20;12.60;;;;;;;-1.09;82.15;101562.06;6248516;28;20049;-78
2021/01/17 08:39:45;;;;;;;25.25;12.55;;;;;;;-1.03;82.16;101559.53;6247525;28;20053;-78
2021/01/17 08:42:49;;;;;;;22.30;11.52;;;;;;;-0.98;82.21;101556.13;6248686;28;20060;-78
2021/01/17 08:45:50;;;;;;;24.52;12.27;;;;;;;-1.03;83.32;101562.09;6248629;28;20049;-78
2021/01/17 08:48:52;;;;;;;26.15;13.32;;;;;;;-1.02;84.02;101560.38;6247933;28;20056;-78
2021/01/17 08:52:00;;;;;;;28.13;13.70;;;;;;;-1.09;83.47;101571.50;6248127;28;20114;-78
2021/01/17 08:55:01;;;;;;;24.92;12.85;;;;;;;-1.00;83.76;101581.03;6246460;28;20049;-79
2021/01/17 08:58:02;;;;;;;30.73;14.13;;;;;;;-0.98;83.90;101575.03;6242074;28;20050;-79
2021/01/17 09:01:04;;;;;;;31.33;14.18;;;;;;;-1.01;84.22;101572.44;6246237;28;20053;-79
2021/01/17 09:04:07;;;;;;;29.05;14.50;;;;;;;-1.07;85.26;101567.22;6246330;28;20045;-79
2021/01/17 09:07:29;;;;;;;30.45;14.70;;;;;;;-1.03;84.96;101568.97;6246215;28;20045;-79
2021/01/17 09:10:32;;;;;;;33.03;14.60;;;;;;;-1.07;85.44;101575.84;6244830;28;20049;-80
2021/01/17 09:13:33;;;;;;;31.45;15.57;;;;;;;-1.03;85.50;101581.88;6246096;28;20053;-79
2021/01/17 09:16:37;;;;;;;30.35;14.82;;;;;;;-1.07;85.67;101585.28;6245788;28;20136;-80
2021/01/17 09:19:39;;;;;;;32.33;15.60;;;;;;;-1.06;85.83;101595.59;6244180;28;20076;-79
2021/01/17 09:22:42;;;;;;;31.42;15.70;;;;;;;-1.08;87.06;101602.47;6247619;28;20548;-80
2021/01/17 09:25:43;;;;;;;38.85;18.05;;;;;;;-1.09;86.21;101605.03;6247018;28;20414;-80
2021/01/17 09:28:44;;;;;;;32.10;15.82;;;;;;;-1.06;86.83;101608.50;6246819;28;20092;-80
2021/01/17 09:31:50;;;;;;;31.85;15.18;;;;;;;-1.06;87.11;101605.91;6247660;28;20045;-80
2021/01/17 09:34:52;;;;;;;32.78;16.25;;;;;;;-1.09;87.04;101617.94;6246924;28;20052;-80
2021/01/17 09:37:59;;;;;;;34.30;16.23;;;;;;;-0.99;87.21;101619.75;6246615;28;20502;-80
2021/01/17 09:41:00;;;;;;;37.00;16.38;;;;;;;-0.95;86.40;101623.19;6245591;28;20140;-80
2021/01/17 09:44:01;;;;;;;32.20;16.30;;;;;;;-0.91;86.63;101625.84;6246101;28;20041;-79
2021/01/17 09:47:04;;;;;;;32.75;15.98;;;;;;;-0.85;85.64;101627.59;6246375;28;20056;-79
2021/01/17 09:50:07;;;;;;;35.72;16.15;;;;;;;-0.82;85.76;101630.19;6243642;28;20048;-78
2021/01/17 09:53:09;;;;;;;35.15;16.48;;;;;;;-0.85;85.78;101628.47;6242974;28;20099;-81
2021/01/17 09:56:10;;;;;;;31.35;15.68;;;;;;;-0.78;85.47;101632.78;6243079;28;20092;-80
2021/01/17 09:59:22;;;;;;;36.03;17.17;;;;;;;-0.81;86.07;101635.38;6246400;28;20041;-80
2021/01/17 10:02:25;;;;;;;38.38;16.88;;;;;;;-0.82;86.35;101633.66;6241138;28;20064;-81
2021/01/17 10:05:28;;;;;;;35.88;17.38;;;;;;;-0.68;86.16;101640.59;6246628;28;20041;-79
2021/01/17 10:08:28;;;;;;;38.40;18.55;;;;;;;-0.79;86.11;101640.53;6245990;28;20076;-81
2021/01/17 10:11:29;;;;;;;38.60;18.30;;;;;;;-0.75;87.51;101652.63;6246546;28;20069;-80
2021/01/17 10:14:32;;;;;;;35.90;17.15;;;;;;;-0.74;86.42;101646.59;6246139;28;20048;-80
2021/01/17 10:17:33;;;;;;;36.47;17.73;;;;;;;-0.74;86.88;101650.91;6245637;28;20506;-80
2021/01/17 10:20:38;;;;;;;40.90;19.23;;;;;;;-0.70;87.65;101647.50;6245438;28;20411;-80
2021/01/17 10:23:39;;;;;;;43.40;18.75;;;;;;;-0.64;87.45;101660.44;6245578;28;20067;-80
2021/01/17 10:26:42;;;;;;;40.28;19.45;;;;;;;-0.64;87.07;101663.88;6245663;28;20049;-80
2021/01/17 10:29:43;;;;;;;35.83;17.48;;;;;;;-0.58;87.43;101661.34;6244935;28;20045;-80
2021/01/17 10:32:45;;;;;;;34.15;17.80;;;;;;;-0.61;87.59;101663.91;6246062;28;20064;-79
2021/01/17 10:35:49;;;;;;;33.42;17.05;;;;;;;-0.49;87.30;101665.72;6246231;28;20518;-79
2021/01/17 10:38:50;;;;;;;43.83;19.20;;;;;;;-0.50;88.12;101661.38;6245345;28;20521;-79
2021/01/17 10:42:00;;;;;;;47.63;20.20;;;;;;;-0.49;88.14;101660.56;6245700;28;20491;-79
2021/01/17 10:45:04;;;;;;;38.58;18.77;;;;;;;-0.47;87.96;101657.97;6245039;28;20046;-79
2021/01/17 10:48:10;;;;;;;41.35;18.13;;;;;;;-0.45;88.41;101656.28;6248992;28;20053;-79
2021/01/17 10:51:20;;;;;;;39.83;18.67;;;;;;;-0.44;87.67;101658.00;6250765;28;20050;-79
2021/01/17 10:54:22;;;;;;;;;;;;;;;-0.51;87.67;101657.06;6251323;28;20115;-79
2021/01/17 10:57:23;;;;;;;40.13;20.70;;;;;;;-0.51;88.25;101652.78;6249038;28;19928;-79
2021/01/17 11:00:24;;;;;;;41.03;19.95;;;;;;;-0.46;87.63;101651.94;6250192;28;20048;-79
2021/01/17 11:03:31;;;;;;;45.00;20.77;;;;;;;-0.46;88.38;101649.38;6250744;28;20422;-79
2021/01/17 11:06:32;;;;;;;41.85;20.25;;;;;;;-0.41;87.79;101643.41;6250218;28;20065;-79
2021/01/17 11:09:34;;;;;;;40.22;19.60;;;;;;;-0.36;87.79;101653.75;6250066;28;20049;-79
2021/01/17 11:12:36;;;;;;;42.80;20.10;;;;;;;-0.35;88.01;101651.16;6250974;28;20045;-79
2021/01/17 11:15:38;;;;;;;43.13;20.52;;;;;;;-0.32;87.67;101650.31;6250174;28;20049;-79
2021/01/17 11:18:47;;;;;;;41.42;20.00;;;;;;;-0.24;88.05;101640.88;6249796;28;20053;-79
2021/01/17 11:21:53;;;;;;;43.45;20.48;;;;;;;-0.22;87.47;101633.19;6250493;28;20049;-79
2021/01/17 11:24:54;;;;;;;44.33;20.30;;;;;;;-0.10;87.97;101636.66;6250393;28;20048;-79
2021/01/17 11:27:59;;;;;;;43.90;20.63;;;;;;;-0.02;87.03;101634.13;6249778;28;20081;-79
2021/01/17 11:31:12;;;;;;;39.88;19.25;;;;;;;-0.02;86.42;101634.97;6250169;28;20045;-79
2021/01/17 11:34:14;;;;;;;40.97;20.08;;;;;;;-0.04;86.80;101638.44;6250559;28;20099;-81
2021/01/17 11:37:16;;;;;;;36.45;18.52;;;;;;;-0.02;86.71;101645.31;6250044;28;20056;-78
2021/01/17 11:40:19;;;;;;;40.63;19.70;;;;;;;-0.14;87.11;101646.97;6249694;28;20060;-79
2021/01/17 11:43:21;;;;;;;40.63;20.35;;;;;;;-0.11;87.05;101636.66;6250567;28;20487;-79
2021/01/17 11:46:22;;;;;;;42.00;20.90;;;;;;;-0.09;87.07;101642.69;6249226;28;20068;-75
2021/01/17 11:49:25;;;;;;;41.78;20.58;;;;;;;-0.05;86.53;101647.00;6247916;28;20045;-76
2021/01/17 11:52:27;;;;;;;40.08;19.98;;;;;;;0.02;86.83;101640.16;6247219;28;20056;-75
2021/01/17 11:55:29;;;;;;;45.55;20.27;;;;;;;0.12;86.43;101644.50;6248943;28;20042;-74
2021/01/17 11:58:38;;;;;;;42.50;21.30;;;;;;;0.10;86.32;101646.25;6245710;28;20056;-76
2021/01/17 12:01:39;;;;;;;41.22;19.65;;;;;;;0.10;87.04;101652.28;6248922;28;20061;-77
2021/01/17 12:04:43;;;;;;;39.90;20.35;;;;;;;0.10;87.56;101649.69;6249726;28;20041;-76
2021/01/17 12:07:58;;;;;;;38.75;20.13;;;;;;;0.13;87.00;101646.22;6247800;28;20045;-76
2021/01/17 12:10:59;;;;;;;44.25;21.20;;;;;;;0.13;86.89;101648.81;6247137;28;20068;-76
2021/01/17 12:14:02;;;;;;;43.97;21.10;;;;;;;0.10;86.63;101644.50;6244920;28;20046;-76
2021/01/17 12:17:04;;;;;;;40.15;20.83;;;;;;;0.12;86.76;101645.38;6247499;28;20049;-76
2021/01/17 12:20:07;;;;;;;46.55;21.40;;;;;;;0.15;86.84;101641.94;6247081;28;20045;-76
2021/01/17 12:23:08;;;;;;;40.05;20.58;;;;;;;0.19;86.33;101639.38;6247584;28;20049;-75
2021/01/17 12:26:10;;;;;;;44.03;20.50;;;;;;;0.10;86.75;101641.06;6246763;28;20054;-76
2021/01/17 12:29:12;;;;;;;40.25;20.75;;;;;;;0.09;86.50;101639.31;6247065;28;20045;-76
2021/01/17 12:32:13;;;;;;;45.45;21.20;;;;;;;0.18;87.18;101647.09;6247195;28;20466;-76
2021/01/17 12:35:13;;;;;;;42.83;21.65;;;;;;;0.23;86.34;101638.53;6246780;28;20041;-76
2021/01/17 12:38:15;;;;;;;51.80;23.40;;;;;;;0.21;86.10;101640.22;6247115;28;20073;-76
2021/01/17 12:41:17;;;;;;;40.70;21.05;;;;;;;0.25;85.53;101633.34;6248003;28;20045;-76
2021/01/17 12:44:19;;;;;;;39.95;20.48;;;;;;;0.36;86.49;101625.63;6248848;28;20046;-76
2021/01/17 12:47:20;;;;;;;42.22;20.50;;;;;;;0.45;85.11;101626.50;6248285;28;20089;-76
2021/01/17 12:50:21;;;;;;;46.03;21.17;;;;;;;0.50;85.17;101618.78;6248291;28;20057;-76
2021/01/17 12:53:23;;;;;;;42.75;20.27;;;;;;;0.52;85.06;101619.66;6248141;28;20057;-77
2021/01/17 12:56:23;;;;;;;42.00;21.45;;;;;;;0.52;85.34;101624.81;6243266;28;20037;-77
2021/01/17 12:59:25;;;;;;;38.28;19.83;;;;;;;0.53;84.25;101618.78;6243226;28;20081;-78
2021/01/17 13:02:27;;;;;;;40.88;21.20;;;;;;;0.49;85.67;101623.06;6223959;28;20053;-74
2021/01/17 13:05:28;;;;;;;39.50;19.98;;;;;;;0.54;84.79;101623.09;6223518;28;20046;-82
2021/01/17 13:08:29;;;;;;;44.67;19.80;;;;;;;0.36;84.36;101631.66;6234745;28;20098;-74
2021/01/17 13:11:30;;;;;;;44.20;20.80;;;;;;;0.31;84.84;101628.19;6239548;28;20046;-75
2021/01/17 13:14:31;;;;;;;43.63;21.13;;;;;;;0.24;85.35;101636.81;6247198;28;20077;-75
2021/01/17 13:17:32;;;;;;;41.58;20.35;;;;;;;0.26;86.21;101637.66;6247423;28;20058;-75
2021/01/17 13:20:34;;;;;;;41.45;20.75;;;;;;;0.23;86.50;101640.25;6247257;28;20049;-74
2021/01/17 13:23:36;;;;;;;42.08;19.92;;;;;;;0.26;85.62;101637.66;6247712;28;20054;-74
2021/01/17 13:26:36;;;;;;;43.60;21.33;;;;;;;0.31;86.12;101641.13;6247242;28;20195;-75
2021/01/17 13:29:37;;;;;;;45.67;21.80;;;;;;;0.32;86.52;101642.88;6247130;28;20410;-74
2021/01/17 13:32:38;;;;;;;45.55;20.90;;;;;;;0.36;86.61;101635.97;6246962;28;20053;-75
2021/01/17 13:35:41;;;;;;;44.05;20.75;;;;;;;0.42;86.00;101643.75;6247130;28;20462;-74
2021/01/17 13:38:43;;;;;;;44.20;21.20;;;;;;;0.38;85.45;101660.13;6245692;28;20045;-73
2021/01/17 13:41:50;;;;;;;41.30;20.80;;;;;;;0.33;85.51;101654.06;6251271;23;20164;-77
2021/01/17 13:44:51;;;;;;;43.60;20.40;;;;;;;0.31;85.58;101669.56;6217007;28;20085;-78
2021/01/17 13:47:52;;;;;;;40.00;20.35;;;;;;;0.31;85.85;101669.56;6221827;28;20057;-78
2021/01/17 13:50:53;;;;;;;42.60;21.17;;;;;;;0.30;86.99;101674.72;6222125;28;20056;-77
2021/01/17 13:53:54;;;;;;;42.00;21.38;;;;;;;0.30;87.65;101666.97;6222383;28;20053;-79
2021/01/17 13:56:56;;;;;;;43.67;22.73;;;;;;;0.30;87.29;101677.31;6222398;28;20419;-79
2021/01/17 13:59:57;;;;;;;46.47;23.02;;;;;;;0.26;87.07;101676.44;6222173;28;20050;-79
2021/01/17 14:02:58;;;;;;;43.10;20.38;;;;;;;0.21;87.45;101683.31;6222071;28;20125;-78